Time;durP1;ratioP1;P1;durP2;ratioP2;P2;SDS_P1;SDS_P2;PMS_P1;PMS_P2;Temp;Humidity;BMP_temperature;BMP_pressure;BME280_temperature;BME280_humidity;BME280_pressure;Samples;Min_cycle;Max_cycle;Signal;HPM_P1;HPM_P2
2021/06/15 00:00:38;;;;;;;;;8.75;7.50;;;;;;;;4981012;28;45740;-82
2021/06/15 00:03:04;;;;;;;;;7.00;6.25;;;;;;;;4989113;28;45969;-82
2021/06/15 00:05:29;;;;;;;;;8.50;6.75;;;;;;;;4983108;28;47727;-82
2021/06/15 00:24:51;;;;;;;;;21.50;21.25;;;;;;;;5569966;23;46512;-81
2021/06/15 00:27:17;;;;;;;;;17.75;15.75;;;;;;;;4973702;28;45709;-81
2021/06/15 00:29:44;;;;;;;;;11.50;8.75;;;;;;;;4977341;28;45541;-81
2021/06/15 00:32:10;;;;;;;;;8.50;8.50;;;;;;;;4951064;28;45878;-81
2021/06/15 00:34:35;;;;;;;;;7.25;7.00;;;;;;;;4974270;28;45542;-81
2021/06/15 00:37:00;;;;;;;;;7.00;7.00;;;;;;;;4983091;28;45526;-81
2021/06/15 00:39:28;;;;;;;;;6.67;6.67;;;;;;;;4984429;28;50616;-81
2021/06/15 00:53:12;;;;;;;;;6.50;6.50;;;;;;;;5313052;23;47030;-82
2021/06/15 01:01:43;;;;;;;;;8.50;8.25;;;;;;;;4953598;23;45498;-83
2021/06/15 01:04:19;;;;;;;;;;;;;;;;;;;;;
2021/06/15 01:07:01;;;;;;;;;8.25;6.75;;;;;;;;4929253;28;74313;-82
2021/06/15 01:09:32;;;;;;;;;9.25;8.00;;;;;;;;4941796;28;49395;-82
2021/06/15 01:18:36;;;;;;;;;9.00;8.00;;;;;;;;4859578;23;46225;-82
2021/06/15 01:21:07;;;;;;;;;6.75;6.75;;;;;;;;4962293;28;45603;-83
2021/06/15 01:23:44;;;;;;;;;6.75;6.50;;;;;;;;4960751;28;45663;-82
2021/06/15 01:26:16;;;;;;;;;7.25;7.25;;;;;;;;4959275;28;45532;-82
2021/06/15 01:52:49;;;;;;;;;10.25;9.00;;;;;;;;4969021;23;45520;-82
2021/06/15 02:11:42;;;;;;;;;6.75;6.50;;;;;;;;4958074;26;45800;-81
2021/06/15 02:14:20;;;;;;;;;9.50;9.50;;;;;;;;4959165;28;47272;-82
2021/06/15 02:55:58;;;;;;;;;7.25;6.25;;;;;;;;4966453;23;47057;-81
2021/06/15 02:58:24;;;;;;;;;9.75;7.25;;;;;;;;4961667;28;45526;-81
2021/06/15 03:00:50;;;;;;;;;10.00;8.50;;;;;;;;4959438;28;45689;-81
2021/06/15 03:03:15;;;;;;;;;9.00;7.50;;;;;;;;4973657;28;45528;-81
2021/06/15 03:05:40;;;;;;;;;8.75;7.75;;;;;;;;4952612;28;45592;-81
2021/06/15 03:20:09;;;;;;;;;13.00;8.50;;;;;;;;4990500;23;45331;-82
2021/06/15 03:22:50;;;;;;;;;11.00;8.25;;;;;;;;4960271;28;45564;-82
2021/06/15 03:25:17;;;;;;;;;7.75;7.75;;;;;;;;4960654;28;45600;-83
2021/06/15 03:27:49;;;;;;;;;10.50;9.25;;;;;;;;4954971;28;53923;-82
2021/06/15 03:30:15;;;;;;;;;10.25;9.00;;;;;;;;4960628;28;46533;-82
2021/06/15 03:32:49;;;;;;;;;8.25;7.50;;;;;;;;4960317;28;45552;-82
2021/06/15 03:35:18;;;;;;;;;10.25;9.25;;;;;;;;4957857;28;47796;-81
2021/06/15 03:40:50;;;;;;;;;7.50;7.50;;;;;;;;4982526;23;45452;-82
2021/06/15 03:43:17;;;;;;;;;8.75;8.00;;;;;;;;4932830;28;46496;-81
2021/06/15 04:00:11;;;;;;;;;9.75;9.75;;;;;;;;5014321;23;45521;-81
2021/06/15 04:02:54;;;;;;;;;13.25;11.25;;;;;;;;4939317;28;47566;-81
2021/06/15 04:11:27;;;;;;;;;14.75;13.25;;;;;;;;4984185;23;48879;-81
2021/06/15 04:58:59;;;;;;;;;12.50;11.00;;;;;;;;5160208;23;45709;-87
2021/06/15 05:01:25;;;;;;;;;16.50;11.75;;;;;;;;4972398;28;45620;-88
2021/06/15 05:03:51;;;;;;;;;16.50;11.00;;;;;;;;4973973;28;45420;-88
2021/06/15 05:06:17;;;;;;;;;13.75;10.00;;;;;;;;4988988;28;45458;-87
2021/06/15 05:08:50;;;;;;;;;11.00;11.00;;;;;;;;4987053;28;47186;-88
2021/06/15 05:13:48;;;;;;;;;10.75;10.75;;;;;;;;4947632;28;45508;-83
2021/06/15 05:16:16;;;;;;;;;15.50;11.25;;;;;;;;4950151;28;45791;-84
2021/06/15 05:18:47;;;;;;;;;9.00;9.00;;;;;;;;4931324;28;47292;-83
2021/06/15 05:21:16;;;;;;;;;15.75;12.00;;;;;;;;4946862;28;45835;-83
2021/06/15 05:23:54;;;;;;;;;10.50;10.00;;;;;;;;4930560;28;45582;-83
2021/06/15 05:26:19;;;;;;;;;11.50;10.75;;;;;;;;4930783;28;45597;-84
2021/06/15 05:28:55;;;;;;;;;9.75;9.25;;;;;;;;4952124;28;45788;-83
2021/06/15 05:31:20;;;;;;;;;12.25;10.50;;;;;;;;4935305;28;53264;-83
2021/06/15 05:33:46;;;;;;;;;10.50;10.25;;;;;;;;4948985;28;52836;-83
2021/06/15 05:36:11;;;;;;;;;9.75;9.75;;;;;;;;4950189;28;45657;-83
2021/06/15 05:38:41;;;;;;;;;10.75;10.75;;;;;;;;4946432;28;48684;-83
2021/06/15 05:41:30;;;;;;;;;;;;;;;;;;;;;
2021/06/15 05:52:36;;;;;;;;;14.00;11.75;;;;;;;;5032965;23;45403;-90
2021/06/15 05:55:02;;;;;;;;;17.00;12.25;;;;;;;;4964881;28;45478;-89
2021/06/15 05:57:30;;;;;;;;;13.50;11.00;;;;;;;;4977562;23;45655;-85
2021/06/15 06:10:15;;;;;;;;;11.50;11.50;;;;;;;;4959982;23;45468;-88
2021/06/15 06:12:40;;;;;;;;;13.25;12.50;;;;;;;;4926779;28;45766;-88
2021/06/15 06:15:06;;;;;;;;;17.75;13.50;;;;;;;;4944816;28;45703;-87
2021/06/15 06:17:32;;;;;;;;;13.50;11.50;;;;;;;;4947288;28;45510;-88
2021/06/15 06:19:57;;;;;;;;;16.00;11.25;;;;;;;;4945709;28;45950;-88
2021/06/15 06:22:23;;;;;;;;;13.75;12.50;;;;;;;;4926677;28;45492;-92
2021/06/15 06:24:49;;;;;;;;;10.50;10.00;;;;;;;;4953582;28;45001;-91
2021/06/15 06:27:14;;;;;;;;;13.75;12.00;;;;;;;;5147779;23;45502;-77
2021/06/15 06:29:39;;;;;;;;;10.00;10.00;;;;;;;;4950555;28;46223;-77
2021/06/15 06:32:05;;;;;;;;;13.25;12.00;;;;;;;;4957173;28;45459;-77
2021/06/15 06:34:30;;;;;;;;;12.75;11.25;;;;;;;;4960179;28;45319;-78
2021/06/15 06:36:55;;;;;;;;;13.67;10.00;;;;;;;;4958445;28;45492;-79
2021/06/15 06:39:20;;;;;;;;;11.25;10.00;;;;;;;;4965349;28;46411;-78
2021/06/15 06:41:46;;;;;;;;;11.75;11.75;;;;;;;;4957202;28;47253;-78
2021/06/15 06:44:12;;;;;;;;;11.00;8.67;;;;;;;;4965204;28;45461;-78
2021/06/15 06:46:37;;;;;;;;;13.50;9.75;;;;;;;;4962778;23;45481;-91
2021/06/15 06:49:02;;;;;;;;;11.00;11.00;;;;;;;;4962213;28;47059;-94
2021/06/15 06:51:28;;;;;;;;;12.25;10.25;;;;;;;;4979304;23;45362;-79
2021/06/15 06:53:53;;;;;;;;;10.25;10.00;;;;;;;;4947565;28;45540;-80
2021/06/15 06:56:19;;;;;;;;;11.75;11.00;;;;;;;;5375220;23;46315;-79
2021/06/15 06:58:46;;;;;;;;;10.75;10.75;;;;;;;;4926427;28;46445;-80
2021/06/15 07:01:11;;;;;;;;;14.00;12.25;;;;;;;;4926785;28;45454;-80
2021/06/15 07:03:36;;;;;;;;;14.33;12.67;;;;;;;;4944716;28;45411;-79
2021/06/15 07:06:02;;;;;;;;;19.75;13.75;;;;;;;;4938308;28;45709;-80
2021/06/15 07:08:27;;;;;;;;;14.50;11.25;;;;;;;;4943796;28;45686;-80
2021/06/15 07:10:52;;;;;;;;;14.50;13.00;;;;;;;;4929732;28;46141;-79
2021/06/15 07:13:18;;;;;;;;;10.50;10.00;;;;;;;;4945619;28;45518;-79
2021/06/15 07:15:43;;;;;;;;;14.75;12.75;;;;;;;;4944419;28;46482;-79
2021/06/15 07:18:08;;;;;;;;;13.75;11.50;;;;;;;;5220266;23;47162;-89
2021/06/15 07:20:34;;;;;;;;;11.00;10.75;;;;;;;;5055490;23;45465;-79
2021/06/15 07:22:59;;;;;;;;;13.75;11.75;;;;;;;;4949924;28;45510;-79
2021/06/15 07:25:24;;;;;;;;;14.25;10.25;;;;;;;;4949467;28;45414;-79
2021/06/15 07:27:50;;;;;;;;;11.75;11.75;;;;;;;;4941694;28;46085;-79
2021/06/15 07:30:15;;;;;;;;;14.00;11.00;;;;;;;;4913322;28;45627;-79
2021/06/15 07:32:41;;;;;;;;;10.25;10.25;;;;;;;;4947039;28;45809;-79
2021/06/15 07:35:07;;;;;;;;;15.00;11.50;;;;;;;;4948739;28;45544;-79
2021/06/15 07:37:32;;;;;;;;;14.25;11.75;;;;;;;;4953367;28;45582;-79
2021/06/15 07:39:58;;;;;;;;;14.50;13.25;;;;;;;;4933635;28;45743;-79
2021/06/15 07:42:25;;;;;;;;;13.00;11.00;;;;;;;;4938254;28;49990;-80
2021/06/15 07:44:50;;;;;;;;;12.25;12.00;;;;;;;;4957067;28;45694;-80
2021/06/15 07:47:16;;;;;;;;;18.00;15.00;;;;;;;;4946995;28;45892;-82
2021/06/15 07:49:41;;;;;;;;;17.50;14.50;;;;;;;;4943623;28;45406;-82
2021/06/15 07:52:06;;;;;;;;;13.50;12.75;;;;;;;;4946817;28;45737;-83
2021/06/15 07:54:31;;;;;;;;;18.75;14.50;;;;;;;;4942742;28;45407;-81
2021/06/15 07:56:57;;;;;;;;;15.50;12.75;;;;;;;;4942962;28;45648;-80
2021/06/15 07:59:22;;;;;;;;;18.75;15.50;;;;;;;;4948668;28;45517;-80
2021/06/15 08:01:47;;;;;;;;;17.00;13.50;;;;;;;;4936059;28;45393;-80
2021/06/15 08:04:15;;;;;;;;;13.25;12.00;;;;;;;;4934094;28;45625;-79
2021/06/15 08:06:40;;;;;;;;;15.00;12.25;;;;;;;;4946725;28;47662;-80
2021/06/15 08:09:06;;;;;;;;;13.50;12.50;;;;;;;;4932965;28;45581;-79
2021/06/15 08:11:31;;;;;;;;;13.00;12.25;;;;;;;;4947823;28;45555;-81
2021/06/15 08:13:56;;;;;;;;;13.00;9.75;;;;;;;;4948002;28;45575;-80
2021/06/15 08:16:22;;;;;;;;;11.00;10.75;;;;;;;;4963318;23;47233;-93
2021/06/15 08:18:47;;;;;;;;;13.25;13.00;;;;;;;;5058949;23;45643;-81
2021/06/15 08:21:15;;;;;;;;;12.00;12.00;;;;;;;;4966364;23;45512;-94
2021/06/15 08:23:40;;;;;;;;;16.50;13.25;;;;;;;;4987284;23;45420;-93
2021/06/15 08:26:06;;;;;;;;;19.75;14.50;;;;;;;;4972078;28;45453;-89
2021/06/15 08:28:31;;;;;;;;;12.75;11.75;;;;;;;;4977469;28;45373;-91
2021/06/15 08:30:57;;;;;;;;;14.25;14.00;;;;;;;;4958056;28;45708;-92
2021/06/15 08:33:22;;;;;;;;;14.75;14.50;;;;;;;;4968603;28;45523;-89
2021/06/15 08:35:48;;;;;;;;;17.00;14.00;;;;;;;;4992201;23;46712;-80
2021/06/15 08:38:15;;;;;;;;;12.75;12.00;;;;;;;;4962908;28;45544;-80
2021/06/15 08:40:41;;;;;;;;;20.50;12.00;;;;;;;;4986429;28;45765;-80
2021/06/15 08:43:06;;;;;;;;;15.00;13.00;;;;;;;;4966174;28;46588;-84
2021/06/15 08:45:32;;;;;;;;;18.00;16.50;;;;;;;;4983990;28;45576;-80
2021/06/15 08:47:57;;;;;;;;;18.25;11.50;;;;;;;;4985473;28;45530;-84
2021/06/15 08:50:24;;;;;;;;;13.00;13.00;;;;;;;;4984819;28;45507;-83
2021/06/15 08:52:53;;;;;;;;;15.50;14.50;;;;;;;;4986465;28;45421;-80
2021/06/15 08:55:21;;;;;;;;;14.75;14.25;;;;;;;;4990573;28;45493;-79
2021/06/15 08:58:09;;;;;;;;;15.25;12.75;;;;;;;;4966190;28;46424;-80
2021/06/15 09:00:34;;;;;;;;;16.25;13.00;;;;;;;;4976150;28;47865;-79
2021/06/15 09:02:59;;;;;;;;;14.50;11.25;;;;;;;;4978685;28;45714;-79
2021/06/15 09:05:25;;;;;;;;;13.75;12.75;;;;;;;;4962133;28;49304;-79
2021/06/15 09:08:06;;;;;;;;;16.50;15.50;;;;;;;;4979633;28;45593;-79
2021/06/15 09:10:43;;;;;;;;;15.50;14.25;;;;;;;;4982189;28;45459;-79
2021/06/15 09:13:27;;;;;;;;;12.25;11.00;;;;;;;;4980267;28;45951;-83
2021/06/15 09:15:52;;;;;;;;;13.75;12.00;;;;;;;;4979271;28;48028;-83
2021/06/15 09:18:28;;;;;;;;;16.75;14.75;;;;;;;;4988602;28;45373;-78
2021/06/15 09:20:53;;;;;;;;;13.50;11.75;;;;;;;;4968832;28;45761;-83
2021/06/15 09:23:30;;;;;;;;;17.50;14.00;;;;;;;;4980490;28;45789;-84
2021/06/15 09:25:55;;;;;;;;;13.00;11.25;;;;;;;;4985760;28;46325;-84
2021/06/15 09:28:21;;;;;;;;;13.25;12.25;;;;;;;;4964410;28;45494;-81
2021/06/15 09:31:00;;;;;;;;;12.00;10.00;;;;;;;;4981166;28;45562;-80
2021/06/15 09:33:34;;;;;;;;;15.25;13.50;;;;;;;;4970527;23;45542;-88
2021/06/15 09:36:07;;;;;;;;;11.75;10.00;;;;;;;;4949182;28;47319;-88
2021/06/15 09:38:34;;;;;;;;;15.25;11.00;;;;;;;;4952831;28;45553;-93
2021/06/15 09:40:59;;;;;;;;;11.75;11.25;;;;;;;;4953641;28;45415;-92
2021/06/15 09:43:24;;;;;;;;;14.50;12.00;;;;;;;;4954236;28;45404;-89
2021/06/15 09:45:50;;;;;;;;;15.25;14.00;;;;;;;;4953563;28;45507;-92
2021/06/15 09:48:24;;;;;;;;;13.50;12.00;;;;;;;;4956283;28;45316;-91
2021/06/15 09:53:23;;;;;;;;;11.75;11.00;;;;;;;;4958644;28;46394;-84
2021/06/15 09:55:49;;;;;;;;;14.50;12.25;;;;;;;;4968181;28;46235;-80
2021/06/15 09:58:16;;;;;;;;;12.00;11.00;;;;;;;;4960421;28;45605;-80
2021/06/15 10:00:41;;;;;;;;;18.75;12.50;;;;;;;;4959941;28;45643;-79
2021/06/15 10:03:14;;;;;;;;;14.25;10.75;;;;;;;;4964672;28;45520;-78
2021/06/15 10:05:39;;;;;;;;;14.25;12.00;;;;;;;;4960626;28;45572;-79
2021/06/15 10:08:06;;;;;;;;;11.75;10.75;;;;;;;;4963531;28;45682;-85
2021/06/15 10:10:36;;;;;;;;;11.25;11.25;;;;;;;;4961033;28;44906;-80
2021/06/15 10:13:02;;;;;;;;;15.50;12.50;;;;;;;;4980867;28;45509;-81
2021/06/15 10:15:28;;;;;;;;;10.75;10.50;;;;;;;;4984084;28;51629;-78
2021/06/15 10:17:54;;;;;;;;;12.00;11.75;;;;;;;;4985226;28;45568;-79
2021/06/15 10:20:21;;;;;;;;;14.00;11.75;;;;;;;;4981383;28;45693;-79
2021/06/15 10:22:47;;;;;;;;;13.75;12.50;;;;;;;;4986367;28;45587;-79
2021/06/15 10:25:13;;;;;;;;;12.25;12.00;;;;;;;;4981756;28;46125;-80
2021/06/15 10:27:41;;;;;;;;;13.50;12.00;;;;;;;;4982029;28;45852;-86
2021/06/15 10:30:08;;;;;;;;;12.25;10.50;;;;;;;;4963177;28;45884;-78
2021/06/15 10:32:34;;;;;;;;;10.00;9.50;;;;;;;;4980762;28;45561;-79
2021/06/15 10:35:12;;;;;;;;;13.75;11.00;;;;;;;;4964186;28;48454;-82
2021/06/15 10:37:45;;;;;;;;;15.25;13.00;;;;;;;;4980636;28;45793;-82
2021/06/15 10:40:14;;;;;;;;;11.25;9.25;;;;;;;;4963319;28;45691;-84
2021/06/15 10:42:42;;;;;;;;;11.50;11.50;;;;;;;;4961662;28;45604;-83
2021/06/15 10:45:15;;;;;;;;;10.75;10.75;;;;;;;;4982593;28;46405;-83
2021/06/15 10:47:42;;;;;;;;;13.50;12.00;;;;;;;;4980772;28;54846;-79
2021/06/15 10:50:10;;;;;;;;;14.75;12.75;;;;;;;;4981060;28;45535;-87
2021/06/15 10:52:56;;;;;;;;;9.50;9.50;;;;;;;;4981733;28;45621;-79
2021/06/15 10:55:40;;;;;;;;;11.00;9.75;;;;;;;;4981387;28;56015;-81
2021/06/15 10:58:05;;;;;;;;;8.50;8.50;;;;;;;;4981370;28;45633;-84
2021/06/15 11:00:42;;;;;;;;;10.00;10.00;;;;;;;;4981503;28;45570;-88
2021/06/15 11:03:16;;;;;;;;;12.75;9.50;;;;;;;;4985793;28;45564;-82
2021/06/15 11:05:42;;;;;;;;;10.75;8.75;;;;;;;;4980024;28;55553;-80
2021/06/15 11:08:20;;;;;;;;;12.50;10.25;;;;;;;;4950259;28;45406;-81
2021/06/15 11:10:54;;;;;;;;;8.50;7.75;;;;;;;;4984936;28;45593;-82
2021/06/15 11:13:39;;;;;;;;;12.00;9.00;;;;;;;;4962599;28;45521;-84
2021/06/15 11:16:04;;;;;;;;;13.25;11.75;;;;;;;;4962991;28;50682;-81
2021/06/15 11:18:29;;;;;;;;;11.50;9.50;;;;;;;;4981129;28;45543;-84
2021/06/15 11:20:55;;;;;;;;;11.75;10.75;;;;;;;;4977932;28;45473;-83
2021/06/15 11:23:20;;;;;;;;;14.00;11.75;;;;;;;;4980750;28;45686;-83
2021/06/15 11:25:47;;;;;;;;;12.00;11.00;;;;;;;;4969383;28;48397;-84
2021/06/15 11:28:31;;;;;;;;;11.75;9.75;;;;;;;;4976563;28;45603;-82
2021/06/15 11:31:15;;;;;;;;;11.00;9.50;;;;;;;;4981435;28;45734;-82
2021/06/15 11:33:59;;;;;;;;;13.25;12.50;;;;;;;;4979526;28;45822;-83
2021/06/15 11:36:43;;;;;;;;;11.25;11.25;;;;;;;;4967079;28;47626;-83
2021/06/15 11:42:07;;;;;;;;;10.00;10.00;;;;;;;;4976330;28;45621;-84
2021/06/15 11:44:52;;;;;;;;;12.50;11.75;;;;;;;;4981642;28;45680;-82
2021/06/15 11:47:27;;;;;;;;;13.00;11.25;;;;;;;;4960631;28;48160;-82
2021/06/15 11:50:07;;;;;;;;;14.75;11.00;;;;;;;;4954472;28;45821;-83
2021/06/15 11:52:34;;;;;;;;;13.00;11.00;;;;;;;;4980772;28;45527;-83
2021/06/15 11:54:59;;;;;;;;;14.50;13.25;;;;;;;;4981744;28;45532;-82
2021/06/15 11:57:27;;;;;;;;;10.25;9.25;;;;;;;;4983150;28;45595;-79
2021/06/15 11:59:53;;;;;;;;;12.75;10.50;;;;;;;;4958776;28;49384;-87
2021/06/15 12:02:18;;;;;;;;;14.75;11.25;;;;;;;;4966128;28;45591;-84
2021/06/15 12:05:02;;;;;;;;;13.75;11.25;;;;;;;;4968545;28;45586;-85
2021/06/15 12:07:27;;;;;;;;;12.25;11.25;;;;;;;;4985685;28;45925;-85
2021/06/15 12:12:54;;;;;;;;;12.25;10.75;;;;;;;;5809323;23;47091;-82
2021/06/15 12:15:23;;;;;;;;;13.25;12.25;;;;;;;;4960659;28;45761;-81
2021/06/15 12:17:49;;;;;;;;;15.25;13.50;;;;;;;;4945226;28;48633;-80
2021/06/15 12:20:22;;;;;;;;;13.50;12.75;;;;;;;;4964930;28;47200;-83
2021/06/15 12:22:47;;;;;;;;;15.50;13.25;;;;;;;;4972715;28;45521;-82
2021/06/15 12:25:12;;;;;;;;;16.33;14.33;;;;;;;;4962378;28;45547;-81
2021/06/15 12:27:37;;;;;;;;;17.75;15.25;;;;;;;;4964690;28;46122;-77
2021/06/15 12:30:04;;;;;;;;;13.00;12.00;;;;;;;;4967599;23;45593;-93
2021/06/15 12:32:42;;;;;;;;;14.00;13.25;;;;;;;;5027771;23;45724;-80
2021/06/15 12:35:31;;;;;;;;;14.50;13.75;;;;;;;;4958565;28;48580;-80
2021/06/15 12:43:29;;;;;;;;;17.25;13.50;;;;;;;;4991988;28;45593;-91
2021/06/15 12:46:05;;;;;;;;;15.50;14.25;;;;;;;;4989084;28;45295;-91
2021/06/15 12:54:52;;;;;;;;;14.25;14.25;;;;;;;;5097953;23;45396;-90
2021/06/15 13:13:54;;;;;;;;;16.75;14.00;;;;;;;;4986385;23;45847;-81
2021/06/15 13:19:35;;;;;;;;;14.50;13.25;;;;;;;;4941581;28;45938;-80
2021/06/15 13:25:05;;;;;;;;;10.75;10.75;;;;;;;;5189959;23;45542;-89
2021/06/15 13:27:46;;;;;;;;;14.25;11.75;;;;;;;;4949979;28;45467;-89
2021/06/15 13:30:13;;;;;;;;;13.25;13.25;;;;;;;;4952879;28;45518;-90
2021/06/15 13:32:39;;;;;;;;;12.00;12.00;;;;;;;;4953219;28;47462;-89
2021/06/15 13:35:08;;;;;;;;;15.50;11.75;;;;;;;;4954109;28;46021;-93
2021/06/15 13:37:35;;;;;;;;;11.00;11.00;;;;;;;;4951230;28;45589;-92
2021/06/15 13:40:01;;;;;;;;;12.00;12.00;;;;;;;;4955073;28;45454;-90
2021/06/15 13:42:27;;;;;;;;;14.00;14.00;;;;;;;;4953291;28;46360;-90
2021/06/15 13:52:45;;;;;;;;;15.25;12.00;;;;;;;;5031479;23;45607;-79
2021/06/15 13:58:15;;;;;;;;;14.25;14.25;;;;;;;;4975198;23;45382;-92
2021/06/15 14:00:41;;;;;;;;;15.25;14.50;;;;;;;;4949413;28;45382;-92
2021/06/15 14:03:08;;;;;;;;;15.50;15.50;;;;;;;;4941044;28;47079;-93
2021/06/15 14:05:33;;;;;;;;;14.75;13.00;;;;;;;;4956742;23;46098;-80
2021/06/15 14:25:53;;;;;;;;;13.00;11.25;;;;;;;;2762755;26;45928;-80
2021/06/15 14:33:49;;;;;;;;;13.75;12.25;;;;;;;;4970005;23;45740;-92
2021/06/15 14:36:15;;;;;;;;;15.33;12.33;;;;;;;;4971795;28;45593;-93
2021/06/15 14:38:40;;;;;;;;;11.75;11.75;;;;;;;;4968406;28;45561;-92
2021/06/15 14:41:05;;;;;;;;;15.50;15.00;;;;;;;;4964334;28;46398;-91
2021/06/15 14:43:31;;;;;;;;;18.00;13.33;;;;;;;;4969208;28;45864;-91
2021/06/15 14:45:56;;;;;;;;;15.75;14.50;;;;;;;;4961450;28;48158;-90
2021/06/15 14:48:21;;;;;;;;;13.25;12.75;;;;;;;;4964051;28;45301;-90
2021/06/15 14:50:46;;;;;;;;;13.50;13.00;;;;;;;;4965847;23;45816;-82
2021/06/15 14:53:12;;;;;;;;;13.00;13.00;;;;;;;;4937382;28;45692;-79
2021/06/15 14:55:37;;;;;;;;;15.00;11.50;;;;;;;;4929312;28;48922;-79
2021/06/15 14:58:02;;;;;;;;;16.50;13.50;;;;;;;;4934278;28;48079;-82
2021/06/15 15:00:28;;;;;;;;;15.50;12.00;;;;;;;;4945165;28;45978;-80
2021/06/15 15:02:53;;;;;;;;;14.25;11.00;;;;;;;;4931718;28;45554;-80
2021/06/15 15:05:19;;;;;;;;;18.50;12.75;;;;;;;;4935273;28;46524;-80
2021/06/15 15:07:45;;;;;;;;;12.25;11.50;;;;;;;;4927499;28;45504;-79
2021/06/15 15:10:11;;;;;;;;;13.75;13.75;;;;;;;;4936937;28;45656;-79
2021/06/15 15:12:36;;;;;;;;;13.25;11.75;;;;;;;;4928459;28;46378;-79
2021/06/15 15:15:02;;;;;;;;;13.75;12.50;;;;;;;;4947256;28;45566;-79
2021/06/15 15:17:27;;;;;;;;;14.00;12.75;;;;;;;;4949512;28;45550;-79
2021/06/15 15:19:53;;;;;;;;;13.25;13.00;;;;;;;;4937750;28;45540;-81
2021/06/15 15:22:19;;;;;;;;;15.75;13.25;;;;;;;;4932386;28;45594;-81
2021/06/15 15:24:45;;;;;;;;;12.00;11.50;;;;;;;;4935238;28;46321;-80
2021/06/15 15:27:10;;;;;;;;;13.00;12.67;;;;;;;;4919997;28;45695;-79
2021/06/15 15:29:36;;;;;;;;;17.00;13.50;;;;;;;;4940944;23;45675;-86
2021/06/15 15:32:04;;;;;;;;;11.75;11.50;;;;;;;;5001543;23;46269;-83
2021/06/15 15:34:32;;;;;;;;;14.50;12.50;;;;;;;;4922805;28;46604;-81
2021/06/15 16:05:38;;;;;;;;;;;;;;;;;;;;;
2021/06/15 16:11:24;;;;;;;;;12.00;12.00;;;;;;;;4938928;23;46619;-82
2021/06/15 16:25:31;;;;;;;;;11.50;11.50;;;;;;;;4942586;23;45601;-81
2021/06/15 16:27:57;;;;;;;;;13.00;13.00;;;;;;;;4924245;28;45576;-81
2021/06/15 16:30:22;;;;;;;;;11.00;11.00;;;;;;;;4936439;28;45555;-81
2021/06/15 16:32:51;;;;;;;;;11.00;11.00;;;;;;;;4927151;28;45466;-83
2021/06/15 16:35:17;;;;;;;;;15.25;12.00;;;;;;;;4917766;28;45578;-81
2021/06/15 16:37:43;;;;;;;;;11.25;10.75;;;;;;;;4934679;28;45622;-81
2021/06/15 16:40:09;;;;;;;;;12.50;10.75;;;;;;;;4933673;28;46289;-81
2021/06/15 16:42:35;;;;;;;;;14.75;10.75;;;;;;;;4940727;28;45619;-81
2021/06/15 16:45:01;;;;;;;;;10.75;10.25;;;;;;;;4945313;28;45685;-81
2021/06/15 16:47:26;;;;;;;;;10.75;10.00;;;;;;;;4940473;28;45672;-81
2021/06/15 16:49:51;;;;;;;;;12.75;11.25;;;;;;;;4945805;28;46065;-81
2021/06/15 16:52:16;;;;;;;;;11.25;11.00;;;;;;;;4942138;28;45719;-82
2021/06/15 16:54:42;;;;;;;;;12.00;11.00;;;;;;;;4942770;28;46451;-82
2021/06/15 16:57:07;;;;;;;;;9.67;9.67;;;;;;;;4947605;28;45913;-82
2021/06/15 16:59:33;;;;;;;;;10.75;10.75;;;;;;;;4941750;28;45819;-82
2021/06/15 17:01:58;;;;;;;;;10.00;10.00;;;;;;;;4946461;28;45941;-81
2021/06/15 17:04:23;;;;;;;;;10.75;10.75;;;;;;;;4942132;28;45598;-81
2021/06/15 17:15:59;;;;;;;;;9.50;8.25;;;;;;;;5114599;23;46032;-84
2021/06/15 17:18:25;;;;;;;;;12.75;12.00;;;;;;;;4974575;28;45695;-81
2021/06/15 17:20:50;;;;;;;;;9.00;9.00;;;;;;;;4970053;28;46132;-82
2021/06/15 17:23:59;;;;;;;;;8.50;8.50;;;;;;;;4978289;28;52889;-82
2021/06/15 17:26:24;;;;;;;;;10.75;9.50;;;;;;;;4961573;28;45503;-81
2021/06/15 17:28:49;;;;;;;;;13.00;11.00;;;;;;;;4973368;28;45490;-82
2021/06/15 17:31:15;;;;;;;;;12.50;11.25;;;;;;;;4959133;28;47338;-81
2021/06/15 17:33:40;;;;;;;;;11.33;10.33;;;;;;;;4977855;28;49669;-81
2021/06/15 17:36:05;;;;;;;;;11.50;10.00;;;;;;;;4973807;28;45576;-80
2021/06/15 17:38:31;;;;;;;;;14.25;11.75;;;;;;;;4972357;28;45575;-81
2021/06/15 17:40:56;;;;;;;;;17.00;11.25;;;;;;;;4970700;28;46071;-81
2021/06/15 17:43:21;;;;;;;;;12.25;11.25;;;;;;;;4965330;28;45460;-81
2021/06/15 17:45:47;;;;;;;;;11.75;11.75;;;;;;;;4969208;28;45617;-80
2021/06/15 17:48:13;;;;;;;;;11.75;11.25;;;;;;;;4968326;28;45497;-81
2021/06/15 17:50:39;;;;;;;;;11.00;11.00;;;;;;;;4952546;28;45497;-81
2021/06/15 17:53:05;;;;;;;;;11.50;10.75;;;;;;;;4971942;28;45602;-79
2021/06/15 17:55:31;;;;;;;;;10.00;10.00;;;;;;;;4967702;28;45292;-79
2021/06/15 17:57:58;;;;;;;;;12.00;11.25;;;;;;;;4956184;28;45319;-80
2021/06/15 18:00:25;;;;;;;;;13.50;12.50;;;;;;;;4979813;28;46834;-80
2021/06/15 18:02:50;;;;;;;;;11.25;10.50;;;;;;;;4969629;28;45287;-78
2021/06/15 18:11:24;;;;;;;;;12.25;12.25;;;;;;;;4985177;23;45600;-78
2021/06/15 18:13:50;;;;;;;;;13.75;13.00;;;;;;;;4947719;28;45803;-79
2021/06/15 18:16:15;;;;;;;;;13.00;12.25;;;;;;;;4949687;28;46348;-80
2021/06/15 18:18:41;;;;;;;;;13.25;11.25;;;;;;;;4955206;28;45766;-79
2021/06/15 18:33:20;;;;;;;;;16.25;14.75;;;;;;;;4984540;23;45597;-79
2021/06/15 18:35:58;;;;;;;;;10.67;10.67;;;;;;;;4919256;28;49631;-79
2021/06/15 18:41:27;;;;;;;;;13.25;13.25;;;;;;;;4958244;23;45569;-80
2021/06/15 18:43:53;;;;;;;;;11.25;11.25;;;;;;;;4960905;28;46238;-79
2021/06/15 18:46:18;;;;;;;;;15.50;14.75;;;;;;;;4948799;28;45596;-79
2021/06/15 18:48:46;;;;;;;;;14.00;13.00;;;;;;;;4959587;28;45657;-80
2021/06/15 18:51:11;;;;;;;;;14.50;12.50;;;;;;;;4940064;28;45652;-79
2021/06/15 18:53:36;;;;;;;;;15.00;13.25;;;;;;;;4940630;28;46723;-79
2021/06/15 18:56:02;;;;;;;;;14.25;13.25;;;;;;;;4960219;28;45069;-79
2021/06/15 18:58:27;;;;;;;;;15.25;11.25;;;;;;;;4935234;28;45628;-80
2021/06/15 19:00:52;;;;;;;;;14.75;14.50;;;;;;;;4942933;28;45558;-80
2021/06/15 19:03:18;;;;;;;;;16.75;12.50;;;;;;;;4967271;28;47831;-79
2021/06/15 19:05:43;;;;;;;;;12.50;11.50;;;;;;;;4944518;28;45593;-78
2021/06/15 19:08:10;;;;;;;;;13.25;13.25;;;;;;;;4969886;28;45509;-78
2021/06/15 19:10:36;;;;;;;;;16.00;16.00;;;;;;;;4967587;28;45460;-77
2021/06/15 19:19:07;;;;;;;;;13.50;12.00;;;;;;;;4964163;23;45874;-79
2021/06/15 19:21:32;;;;;;;;;11.75;11.00;;;;;;;;4959385;28;48512;-78
2021/06/15 19:23:57;;;;;;;;;13.00;12.00;;;;;;;;4937446;28;47017;-77
2021/06/15 19:26:24;;;;;;;;;13.25;12.00;;;;;;;;4956866;28;46553;-77
2021/06/15 19:28:49;;;;;;;;;13.50;12.00;;;;;;;;4956218;28;45634;-77
2021/06/15 19:36:59;;;;;;;;;12.25;11.75;;;;;;;;5025386;23;45734;-76
2021/06/15 19:42:27;;;;;;;;;13.50;12.50;;;;;;;;4986956;28;45606;-76
2021/06/15 19:44:55;;;;;;;;;11.00;10.75;;;;;;;;4981451;28;46047;-76
2021/06/15 19:53:26;;;;;;;;;14.00;12.00;;;;;;;;4992286;28;45405;-77
2021/06/15 19:56:07;;;;;;;;;11.00;10.50;;;;;;;;4981344;28;46093;-77
2021/06/15 19:58:33;;;;;;;;;14.50;12.00;;;;;;;;4978208;28;45523;-77
2021/06/15 20:00:59;;;;;;;;;15.00;13.50;;;;;;;;4983256;28;45429;-77
2021/06/15 20:03:24;;;;;;;;;13.00;12.50;;;;;;;;4985343;28;45578;-77
2021/06/15 20:05:49;;;;;;;;;13.75;13.00;;;;;;;;4961760;28;48283;-77
2021/06/15 20:08:15;;;;;;;;;19.75;14.75;;;;;;;;4982993;28;45623;-77
2021/06/15 20:10:40;;;;;;;;;15.25;12.25;;;;;;;;4984749;28;45633;-77
2021/06/15 20:13:05;;;;;;;;;13.75;12.75;;;;;;;;4982048;28;45394;-77
2021/06/15 20:15:31;;;;;;;;;17.25;12.50;;;;;;;;4984090;28;45535;-77
2021/06/15 20:17:56;;;;;;;;;17.00;13.00;;;;;;;;4982850;28;45479;-76
2021/06/15 20:20:22;;;;;;;;;15.50;13.00;;;;;;;;4983595;28;45903;-77
2021/06/15 20:22:48;;;;;;;;;12.75;12.75;;;;;;;;4979792;28;45402;-76
2021/06/15 20:25:14;;;;;;;;;14.50;14.50;;;;;;;;4964211;28;45435;-77
2021/06/15 20:27:39;;;;;;;;;18.00;16.75;;;;;;;;4981178;28;45535;-78
2021/06/15 20:30:05;;;;;;;;;17.25;14.25;;;;;;;;4964364;28;45545;-79
2021/06/15 20:35:41;;;;;;;;;15.50;15.00;;;;;;;;4980999;23;45711;31
2021/06/15 20:38:27;;;;;;;;;17.75;15.00;;;;;;;;4907160;28;45964;-78
2021/06/15 20:40:52;;;;;;;;;14.50;13.75;;;;;;;;4905610;28;45599;-78
2021/06/15 20:43:17;;;;;;;;;17.75;14.75;;;;;;;;4902562;28;45834;-78
2021/06/15 20:45:43;;;;;;;;;18.75;14.25;;;;;;;;4903706;28;45553;-80
2021/06/15 20:48:08;;;;;;;;;15.50;14.00;;;;;;;;4905334;28;49517;-78
2021/06/15 20:50:34;;;;;;;;;16.00;13.50;;;;;;;;4885529;28;46091;-79
2021/06/15 20:53:02;;;;;;;;;15.00;14.50;;;;;;;;4906694;28;45496;-79
2021/06/15 20:55:34;;;;;;;;;14.00;13.00;;;;;;;;4920386;28;48345;-80
2021/06/15 21:00:34;;;;;;;;;16.50;16.25;;;;;;;;5273432;23;46586;-80
2021/06/15 21:02:59;;;;;;;;;15.25;14.25;;;;;;;;4974289;28;45545;-81
2021/06/15 21:05:25;;;;;;;;;21.00;15.25;;;;;;;;4971722;28;45493;-81
2021/06/15 21:07:50;;;;;;;;;16.50;14.50;;;;;;;;4987381;28;45607;-80